Sunday, July 22, 2018, 12:50 PM GMT
Back to Local

CYQB, Quebec, Que

Location: , , Canada Lat: 46.8
Local Time: 12:50 PM GMT (12:50 GMT) Lon: -71.383
Time Zone: GMT Elev: 229 ft

Show me the last for .
Show Decoded

2018-07-22 12:00 METAR CYQB 221200Z 07012KT 15SM FEW022 FEW140 BKN250 21/16 A3014 RMK SC1AC1CI5
                 SC TR AC TR HAZY SLP206 DENSITY ALT 800FT =
2018-07-22 11:00 METAR CYQB 221100Z 03004KT 15SM FEW016 FEW120 BKN250 18/15 A3013 RMK SF1AC1CI5
                 SF TR AC TR HAZY SLP204 DENSITY ALT 500FT =
2018-07-22 10:00 METAR CYQB 221000Z 02004KT 15SM FEW016 FEW120 BKN250 16/14 A3014 RMK SF1AC1CI5
                 SF TR AC TR SLP208 =
2018-07-22 09:00 METAR CYQB 220900Z CCA 36003KT 30SM FEW018 FEW120 BKN260 16/14 A3014 RMK
                 SF1AC1CI6 SF TR AC TR SLP208 =
2018-07-22 08:00 METAR CYQB 220800Z 01003KT 15SM SKC 16/14 A3012 RMK SLP202 =
2018-07-22 07:00 METAR CYQB 220700Z 08004KT 050V140 15SM SKC 17/15 A3012 RMK SLP201 DENSITY ALT
                 300FT =
2018-07-22 06:00 METAR CYQB 220600Z 04005KT 15SM SKC 20/16 A3012 RMK SLP199 DENSITY ALT 700FT =
2018-07-22 05:00 METAR CYQB 220500Z 05008KT 15SM SKC 19/17 A3012 RMK SLP199 DENSITY ALT 600FT =
2018-07-22 04:00 METAR CYQB 220400Z 05007KT 15SM SKC 20/17 A3011 RMK SLP198 DENSITY ALT 800FT =
2018-07-22 03:00 METAR CYQB 220300Z 07008KT 15SM SKC 23/17 A3010 RMK SLP194 DENSITY ALT 1000FT =
2018-07-22 02:00 METAR CYQB 220200Z 07009KT 15SM SKC 24/18 A3009 RMK SLP190 DENSITY ALT 1200FT =
2018-07-22 01:00 METAR CYQB 220100Z 10006KT 20SM FEW070 FEW260 25/14 A3007 RMK AC1CI1 AC TR CI TR
                 SLP185 DENSITY ALT 1400FT =
2018-07-22 00:00 METAR CYQB 220000Z 12004KT 30SM FEW070 FEW260 28/15 A3006 RMK AC1CI1 SLP181
                 DENSITY ALT 1600FT =
2018-07-21 23:00 METAR CYQB 212300Z 13004KT 080V140 30SM FEW074 FEW260 29/18 A3005 RMK AC1CI1
                 SLP176 DENSITY ALT 1800FT =
2018-07-21 22:00 METAR CYQB 212200Z 05005KT 320V130 30SM FEW074 FEW260 31/16 A3004 RMK AC1CI1
                 SLP175 DENSITY ALT 2000FT =
2018-07-21 21:00 METAR CYQB 212100Z VRB02KT 30SM FEW065 FEW260 31/16 A3005 RMK CU1CI1 CI TR
                 SLP176 DENSITY ALT 2100FT =
2018-07-21 20:00 METAR CYQB 212000Z 35003KT 320V060 30SM FEW065 FEW260 31/16 A3006 RMK CU1CI1 CU
                 TR CI TR SLP182 DENSITY ALT 2000FT =
2018-07-21 19:00 METAR CYQB 211900Z 22003KT 30SM FEW065 FEW260 30/17 A3008 RMK CU1CI1 CU TR CI TR
                 SLP186 DENSITY ALT 1900FT =
2018-07-21 18:00 METAR CYQB 211800Z 00000KT 30SM FEW060 FEW260 29/15 A3009 RMK CU1CI1 CI TR
                 SLP190 DENSITY ALT 1800FT =
2018-07-21 17:00 METAR CYQB 211700Z 18004KT 150V250 30SM FEW060 FEW260 28/17 A3010 RMK CU1CI1 CU
                 TR CI TR SLP195 DENSITY ALT 1700FT =
2018-07-21 16:00 METAR CYQB 211600Z 18006KT 110V270 30SM FEW060 FEW260 28/18 A3012 RMK CU1CI1 CI
                 TR SLP199 DENSITY ALT 1600FT =
2018-07-21 15:00 METAR CYQB 211500Z 23004KT 210V270 30SM FEW060 FEW260 26/16 A3013 RMK CU1CI1 CI
                 TR SLP205 DENSITY ALT 1400FT =
2018-07-21 14:00 METAR CYQB 211400Z 28003KT 30SM FEW060 FEW260 25/16 A3014 RMK CU1CI1 CU TR CI TR
                 SLP207 DENSITY ALT 1300FT =
2018-07-21 13:00 METAR CYQB 211300Z VRB03KT 30SM FEW080 FEW260 24/17 A3014 RMK AC1CI1 AC TR
                 SLP208 DENSITY ALT 1100FT =

Support USWX by starting your Amazon purchase here.